createdAt,value
2018-07-26T00:00:29.603Z,1009.97
2018-07-26T00:02:22.608Z,1009.95
2018-07-26T00:03:22.666Z,1009.94
2018-07-26T00:05:15.678Z,1009.96
2018-07-26T00:06:15.737Z,1009.97
2018-07-26T00:08:08.741Z,1009.93
2018-07-26T00:09:08.810Z,1009.92
2018-07-26T00:11:02.316Z,1009.93
2018-07-26T00:12:02.378Z,1009.96
2018-07-26T00:13:55.375Z,1009.94
2018-07-26T00:14:55.442Z,1009.91
2018-07-26T00:16:48.456Z,1009.94
2018-07-26T00:17:48.517Z,1009.99
2018-07-26T00:19:41.591Z,1009.96
2018-07-26T00:20:41.587Z,1009.99
2018-07-26T00:22:34.594Z,1009.99
2018-07-26T00:23:34.654Z,1009.94
2018-07-26T00:25:27.664Z,1010.00
2018-07-26T00:26:27.726Z,1010.00
2018-07-26T00:28:20.729Z,1010.00
2018-07-26T00:29:20.796Z,1009.98
2018-07-26T00:31:13.810Z,1010.02
2018-07-26T00:32:13.874Z,1010.02
2018-07-26T00:34:06.873Z,1010.03
2018-07-26T00:35:06.944Z,1010.03
2018-07-26T00:36:59.946Z,1010.03
2018-07-26T00:38:00.014Z,1010.01
2018-07-26T00:39:53.013Z,1009.97
2018-07-26T00:40:53.079Z,1009.97
2018-07-26T00:42:46.088Z,1009.95
2018-07-26T00:43:46.147Z,1009.95
2018-07-26T00:45:39.152Z,1009.96
2018-07-26T00:46:39.214Z,1009.94
2018-07-26T00:48:32.218Z,1009.97
2018-07-26T00:49:32.286Z,1009.96
2018-07-26T00:51:25.291Z,1009.91
2018-07-26T00:52:25.353Z,1009.93
2018-07-26T00:54:18.356Z,1009.90
2018-07-26T00:55:18.423Z,1009.93
2018-07-26T00:57:11.430Z,1009.86
2018-07-26T00:58:11.490Z,1009.90
2018-07-26T01:00:04.490Z,1009.90
2018-07-26T01:01:04.557Z,1009.89
2018-07-26T01:02:57.568Z,1009.89
2018-07-26T01:03:57.626Z,1009.92
2018-07-26T01:05:50.637Z,1009.93
2018-07-26T01:06:50.700Z,1009.95
2018-07-26T01:08:43.696Z,1009.95
2018-07-26T01:09:43.816Z,1009.93
2018-07-26T01:11:36.775Z,1009.91
2018-07-26T01:12:36.832Z,1009.96
2018-07-26T01:14:29.840Z,1009.92
2018-07-26T01:15:29.908Z,1009.90
2018-07-26T01:17:22.915Z,1009.86
2018-07-26T01:18:22.979Z,1009.86
2018-07-26T01:20:15.973Z,1009.83
2018-07-26T01:21:16.044Z,1009.82
2018-07-26T01:23:09.040Z,1009.82
2018-07-26T01:24:09.105Z,1009.84
2018-07-26T01:26:02.119Z,1009.86
2018-07-26T01:27:02.179Z,1009.87
2018-07-26T01:28:55.186Z,1009.83
2018-07-26T01:29:55.253Z,1009.83
2018-07-26T01:31:48.267Z,1009.85
2018-07-26T01:32:48.327Z,1009.83
2018-07-26T01:34:41.328Z,1009.79
2018-07-26T01:35:41.395Z,1009.80
2018-07-26T01:37:34.408Z,1009.77
2018-07-26T01:38:34.468Z,1009.79
2018-07-26T01:40:27.472Z,1009.80
2018-07-26T01:41:27.553Z,1009.81
2018-07-26T01:43:20.541Z,1009.80
2018-07-26T01:44:20.605Z,1009.80
2018-07-26T01:46:13.614Z,1009.76
2018-07-26T01:47:13.675Z,1009.78
2018-07-26T01:49:06.674Z,1009.76
2018-07-26T01:50:06.740Z,1009.78
2018-07-26T01:51:59.744Z,1009.74
2018-07-26T01:52:59.803Z,1009.73
2018-07-26T01:54:52.804Z,1009.73
2018-07-26T01:55:52.870Z,1009.73
2018-07-26T01:57:45.877Z,1009.77
2018-07-26T01:58:45.941Z,1009.76
2018-07-26T02:00:38.943Z,1009.77
2018-07-26T02:01:39.029Z,1009.75
2018-07-26T02:03:32.028Z,1009.78
2018-07-26T02:04:32.089Z,1009.71
2018-07-26T02:06:25.098Z,1009.70
2018-07-26T02:07:25.157Z,1009.73
2018-07-26T02:09:18.161Z,1009.69
2018-07-26T02:10:18.225Z,1009.73
2018-07-26T02:12:11.231Z,1009.68
2018-07-26T02:13:11.294Z,1009.64
2018-07-26T02:15:04.296Z,1009.67
2018-07-26T02:16:04.362Z,1009.66
2018-07-26T02:17:57.372Z,1009.67
2018-07-26T02:18:57.434Z,1009.69
2018-07-26T02:20:50.439Z,1009.69
2018-07-26T02:21:50.507Z,1009.71
2018-07-26T02:23:43.511Z,1009.71
2018-07-26T02:24:43.573Z,1009.70
2018-07-26T02:26:36.598Z,1009.70
2018-07-26T02:27:36.653Z,1009.71
2018-07-26T02:29:29.655Z,1009.69
2018-07-26T02:30:29.724Z,1009.66
2018-07-26T02:32:22.730Z,1009.67
2018-07-26T02:33:22.794Z,1009.67
2018-07-26T02:35:15.794Z,1009.69
2018-07-26T02:36:15.860Z,1009.68
2018-07-26T02:38:08.864Z,1009.66
2018-07-26T02:39:08.927Z,1009.71
2018-07-26T02:41:01.923Z,1009.67
2018-07-26T02:42:01.993Z,1009.68
2018-07-26T02:43:55.515Z,1009.71
2018-07-26T02:44:55.625Z,1009.69
2018-07-26T02:46:49.077Z,1009.71
2018-07-26T02:47:49.142Z,1009.68
2018-07-26T02:49:42.142Z,1009.69
2018-07-26T02:50:42.210Z,1009.71
2018-07-26T02:52:35.223Z,1009.71
2018-07-26T02:53:35.284Z,1009.72
2018-07-26T02:55:28.290Z,1009.72
2018-07-26T02:56:28.352Z,1009.72
2018-07-26T02:58:21.360Z,1009.68
2018-07-26T02:59:21.425Z,1009.70
2018-07-26T03:01:14.427Z,1009.63
2018-07-26T03:02:14.512Z,1009.68
2018-07-26T03:04:07.505Z,1009.67
2018-07-26T03:05:07.571Z,1009.68
2018-07-26T03:07:00.574Z,1009.69
2018-07-26T03:08:00.631Z,1009.66
2018-07-26T03:09:53.635Z,1009.66
2018-07-26T03:10:53.702Z,1009.65
2018-07-26T03:12:46.704Z,1009.69
2018-07-26T03:13:46.766Z,1009.68
2018-07-26T03:15:39.763Z,1009.67
2018-07-26T03:16:39.830Z,1009.68
2018-07-26T03:18:32.842Z,1009.65
2018-07-26T03:19:32.902Z,1009.67
2018-07-26T03:21:25.907Z,1009.62
2018-07-26T03:22:25.972Z,1009.62
2018-07-26T03:24:18.980Z,1009.63
2018-07-26T03:25:19.041Z,1009.61
2018-07-26T03:27:12.043Z,1009.61
2018-07-26T03:28:12.102Z,1009.61
2018-07-26T03:30:05.105Z,1009.64
2018-07-26T03:31:05.172Z,1009.59
2018-07-26T03:32:58.179Z,1009.59
2018-07-26T03:33:58.235Z,1009.59
2018-07-26T03:35:51.238Z,1009.59
2018-07-26T03:36:51.306Z,1009.60
2018-07-26T03:38:44.313Z,1009.55
2018-07-26T03:39:44.375Z,1009.59
2018-07-26T03:41:37.373Z,1009.56
2018-07-26T03:42:37.441Z,1009.58
2018-07-26T03:44:30.954Z,1009.62
2018-07-26T03:45:31.013Z,1009.60
2018-07-26T03:47:24.015Z,1009.64
2018-07-26T03:48:24.074Z,1009.62
2018-07-26T03:50:17.088Z,1009.61
2018-07-26T03:51:17.231Z,1009.64
2018-07-26T03:53:10.170Z,1009.66
2018-07-26T03:54:10.230Z,1009.66
2018-07-26T03:56:03.732Z,1009.64
2018-07-26T03:57:03.797Z,1009.64
2018-07-26T03:58:56.802Z,1009.66
2018-07-26T03:59:56.863Z,1009.62
2018-07-26T04:01:49.864Z,1009.61
2018-07-26T04:02:49.929Z,1009.60
2018-07-26T04:04:42.934Z,1009.59
2018-07-26T04:05:42.999Z,1009.64
2018-07-26T04:07:36.008Z,1009.63
2018-07-26T04:08:36.072Z,1009.61
2018-07-26T04:10:29.073Z,1009.64
2018-07-26T04:11:29.139Z,1009.66
2018-07-26T04:13:22.139Z,1009.65
2018-07-26T04:14:22.199Z,1009.64
2018-07-26T04:16:15.212Z,1009.65
2018-07-26T04:17:15.276Z,1009.66
2018-07-26T04:19:08.280Z,1009.69
2018-07-26T04:20:08.398Z,1009.67
2018-07-26T04:22:01.346Z,1009.68
2018-07-26T04:23:01.407Z,1009.67
2018-07-26T04:24:54.414Z,1009.65
2018-07-26T04:25:54.475Z,1009.67
2018-07-26T04:27:47.482Z,1009.68
2018-07-26T04:28:48.498Z,1009.69
2018-07-26T04:30:40.542Z,1009.72
2018-07-26T04:31:40.659Z,1009.74
2018-07-26T04:33:33.619Z,1009.78
2018-07-26T04:34:33.676Z,1009.77
2018-07-26T04:36:26.690Z,1009.80
2018-07-26T04:37:26.756Z,1009.81
2018-07-26T04:39:19.761Z,1009.88
2018-07-26T04:40:19.822Z,1009.86
2018-07-26T04:42:12.819Z,1009.87
2018-07-26T04:43:12.890Z,1009.88
2018-07-26T04:45:05.895Z,1009.87
2018-07-26T04:46:05.952Z,1009.92
2018-07-26T04:47:58.957Z,1009.93
2018-07-26T04:48:59.042Z,1009.92
2018-07-26T04:50:52.032Z,1009.94
2018-07-26T04:51:52.093Z,1009.94
2018-07-26T04:53:45.101Z,1009.98
2018-07-26T04:54:45.163Z,1009.96
2018-07-26T04:56:38.166Z,1009.96
2018-07-26T04:57:38.231Z,1009.97
2018-07-26T04:59:31.242Z,1010.02
2018-07-26T05:00:31.304Z,1010.00
2018-07-26T05:02:24.308Z,1009.99
2018-07-26T05:03:24.370Z,1010.01
2018-07-26T05:05:17.931Z,1009.99
2018-07-26T05:06:17.992Z,1009.97
2018-07-26T05:08:11.049Z,1009.98
2018-07-26T05:09:11.055Z,1009.97
2018-07-26T05:11:04.072Z,1009.98
2018-07-26T05:12:04.134Z,1009.99
2018-07-26T05:13:57.158Z,1010.00
2018-07-26T05:14:57.214Z,1009.99
2018-07-26T05:16:50.222Z,1010.03
2018-07-26T05:17:50.284Z,1009.99
2018-07-26T05:19:43.305Z,1009.99
2018-07-26T05:20:43.362Z,1010.01
2018-07-26T05:22:36.363Z,1009.98
2018-07-26T05:23:36.430Z,1009.99
2018-07-26T05:25:30.953Z,1009.98
2018-07-26T05:26:31.010Z,1009.96
2018-07-26T05:28:24.018Z,1010.02
2018-07-26T05:29:24.084Z,1009.99
2018-07-26T05:31:17.089Z,1009.98
2018-07-26T05:32:17.148Z,1009.98
2018-07-26T05:34:10.152Z,1009.98
2018-07-26T05:35:10.215Z,1009.95
2018-07-26T05:37:03.221Z,1009.99
2018-07-26T05:38:03.280Z,1010.00
2018-07-26T05:39:56.282Z,1010.00
2018-07-26T05:40:56.347Z,1010.01
2018-07-26T05:42:49.356Z,1010.02
2018-07-26T05:43:49.414Z,1010.01
2018-07-26T05:45:42.437Z,1010.03
2018-07-26T05:46:42.484Z,1010.01
2018-07-26T05:48:35.490Z,1010.01
2018-07-26T05:49:35.554Z,1010.01
2018-07-26T05:51:28.570Z,1010.02
2018-07-26T05:52:28.636Z,1010.01
2018-07-26T05:54:21.635Z,1010.06
2018-07-26T05:55:21.701Z,1010.07
2018-07-26T05:57:14.715Z,1010.11
2018-07-26T05:58:14.777Z,1010.13
2018-07-26T06:00:07.794Z,1010.13
2018-07-26T06:01:07.850Z,1010.13
2018-07-26T06:03:00.858Z,1010.14
2018-07-26T06:04:00.919Z,1010.17
2018-07-26T06:05:53.939Z,1010.14
2018-07-26T06:06:53.990Z,1010.16
2018-07-26T06:08:46.994Z,1010.12
2018-07-26T06:09:47.163Z,1010.13
2018-07-26T06:11:40.068Z,1010.16
2018-07-26T06:12:40.130Z,1010.19
2018-07-26T06:14:33.126Z,1010.17
2018-07-26T06:15:33.194Z,1010.17
2018-07-26T06:17:26.207Z,1010.19
2018-07-26T06:18:26.270Z,1010.16
2018-07-26T06:20:19.278Z,1010.19
2018-07-26T06:21:19.345Z,1010.18
2018-07-26T06:23:12.355Z,1010.22
2018-07-26T06:24:12.415Z,1010.25
2018-07-26T06:26:05.423Z,1010.23
2018-07-26T06:27:05.487Z,1010.30
2018-07-26T06:28:58.497Z,1010.34
2018-07-26T06:29:58.559Z,1010.26
2018-07-26T06:31:51.574Z,1010.34
2018-07-26T06:32:51.637Z,1010.36
2018-07-26T06:34:44.643Z,1010.49
2018-07-26T06:35:44.712Z,1010.48
2018-07-26T06:37:37.730Z,1010.52
2018-07-26T06:38:37.793Z,1010.50
2018-07-26T06:40:30.804Z,1010.51
2018-07-26T06:41:30.866Z,1010.46
2018-07-26T06:43:23.881Z,1010.43
2018-07-26T06:44:23.946Z,1010.48
2018-07-26T06:46:16.962Z,1010.52
2018-07-26T06:47:17.031Z,1010.55
2018-07-26T06:49:10.048Z,1010.54
2018-07-26T06:50:10.116Z,1010.47
2018-07-26T06:52:03.129Z,1010.49
2018-07-26T06:53:03.234Z,1010.53
2018-07-26T06:54:56.217Z,1010.53
2018-07-26T06:55:56.283Z,1010.52
2018-07-26T06:57:49.305Z,1010.61
2018-07-26T06:58:49.372Z,1010.59
2018-07-26T07:00:42.419Z,1010.63
2018-07-26T07:01:42.459Z,1010.66
2018-07-26T07:03:35.479Z,1010.63
2018-07-26T07:04:35.552Z,1010.62
2018-07-26T07:06:28.566Z,1010.43
2018-07-26T07:07:28.638Z,1010.39
2018-07-26T07:09:21.661Z,1010.45
2018-07-26T07:10:21.728Z,1010.49
2018-07-26T07:12:14.751Z,1010.58
2018-07-26T07:13:14.816Z,1010.58
2018-07-26T07:15:07.838Z,1010.61
2018-07-26T07:16:07.908Z,1010.68
2018-07-26T07:18:00.924Z,1010.63
2018-07-26T07:19:01.001Z,1010.58
2018-07-26T07:20:54.024Z,1010.64
2018-07-26T07:21:54.091Z,1010.67
2018-07-26T07:23:47.142Z,1010.69
2018-07-26T07:24:47.196Z,1010.66
2018-07-26T07:26:40.212Z,1010.69
2018-07-26T07:27:40.286Z,1010.65
2018-07-26T07:29:33.316Z,1010.65
2018-07-26T07:30:33.382Z,1010.63
2018-07-26T07:32:26.403Z,1010.65
2018-07-26T07:33:26.483Z,1010.63
2018-07-26T07:35:19.533Z,1010.68
2018-07-26T07:36:19.583Z,1010.66
2018-07-26T07:38:12.621Z,1010.65
2018-07-26T07:39:12.694Z,1010.70
2018-07-26T07:41:05.766Z,1010.66
2018-07-26T07:42:05.791Z,1010.71
2018-07-26T07:43:58.842Z,1010.73
2018-07-26T07:44:58.888Z,1010.75
2018-07-26T07:46:51.913Z,1010.73
2018-07-26T07:47:52.057Z,1010.73
2018-07-26T07:49:45.027Z,1010.73
2018-07-26T07:50:45.092Z,1010.70
2018-07-26T07:52:38.224Z,1010.70
2018-07-26T07:53:38.238Z,1010.70
2018-07-26T07:55:31.244Z,1010.72
2018-07-26T07:56:31.316Z,1010.72
2018-07-26T07:58:24.340Z,1010.67
2018-07-26T07:59:24.466Z,1010.67
2018-07-26T08:01:17.448Z,1010.67
2018-07-26T08:02:17.520Z,1010.69
2018-07-26T08:04:10.543Z,1010.65
2018-07-26T08:05:10.638Z,1010.63
2018-07-26T08:07:03.656Z,1010.62
2018-07-26T08:08:03.731Z,1010.64
2018-07-26T08:09:56.760Z,1010.60
2018-07-26T08:10:56.834Z,1010.64
2018-07-26T08:12:49.865Z,1010.60
2018-07-26T08:13:49.942Z,1010.63
2018-07-26T08:15:42.974Z,1010.59
2018-07-26T08:16:43.046Z,1010.59
2018-07-26T08:18:36.073Z,1010.61
2018-07-26T08:19:36.150Z,1010.64
2018-07-26T08:21:29.269Z,1010.60
2018-07-26T08:22:29.263Z,1010.64
2018-07-26T08:24:22.284Z,1010.62
2018-07-26T08:25:22.370Z,1010.67
2018-07-26T08:27:15.408Z,1010.68
2018-07-26T08:28:15.482Z,1010.69
2018-07-26T08:30:08.516Z,1010.65
2018-07-26T08:31:08.598Z,1010.73
2018-07-26T08:33:01.631Z,1010.66
2018-07-26T08:34:01.709Z,1010.67
2018-07-26T08:35:54.743Z,1010.64
2018-07-26T08:36:54.820Z,1010.64
2018-07-26T08:38:47.845Z,1010.57
2018-07-26T08:39:47.927Z,1010.61
2018-07-26T08:41:40.963Z,1010.63
2018-07-26T08:42:41.036Z,1010.61
2018-07-26T08:44:34.576Z,1010.64
2018-07-26T08:45:34.657Z,1010.62
2018-07-26T08:47:27.687Z,1010.63
2018-07-26T08:48:27.761Z,1010.66
2018-07-26T08:50:20.792Z,1010.67
2018-07-26T08:51:20.870Z,1010.64
2018-07-26T08:53:13.903Z,1010.65
2018-07-26T08:54:14.023Z,1010.67
2018-07-26T08:56:07.011Z,1010.68
2018-07-26T08:57:07.091Z,1010.69
2018-07-26T08:59:00.135Z,1010.68
2018-07-26T09:00:00.214Z,1010.65
2018-07-26T09:01:53.241Z,1010.64
2018-07-26T09:02:53.324Z,1010.66
2018-07-26T09:04:46.361Z,1010.64
2018-07-26T09:05:46.436Z,1010.64
2018-07-26T09:07:39.480Z,1010.58
2018-07-26T09:08:39.562Z,1010.64
2018-07-26T09:10:32.597Z,1010.63
2018-07-26T09:11:32.740Z,1010.61
2018-07-26T09:13:25.773Z,1010.63
2018-07-26T09:14:25.794Z,1010.65
2018-07-26T09:16:18.831Z,1010.65
2018-07-26T09:17:18.935Z,1010.66
2018-07-26T09:19:11.957Z,1010.70
2018-07-26T09:20:12.040Z,1010.69
2018-07-26T09:22:05.075Z,1010.61
2018-07-26T09:23:05.157Z,1010.61
2018-07-26T09:24:58.197Z,1010.58
2018-07-26T09:25:58.277Z,1010.54
2018-07-26T09:27:51.316Z,1010.50
2018-07-26T09:28:51.405Z,1010.47
2018-07-26T09:30:44.439Z,1010.45
2018-07-26T09:31:44.520Z,1010.51
2018-07-26T09:33:37.572Z,1010.34
2018-07-26T09:34:37.654Z,1010.25
2018-07-26T09:36:30.691Z,1010.16
2018-07-26T09:37:30.776Z,1010.16
2018-07-26T09:39:23.822Z,1010.08
2018-07-26T09:40:23.898Z,1010.08
2018-07-26T09:42:16.927Z,1010.07
2018-07-26T09:43:17.005Z,1010.11
2018-07-26T09:45:10.070Z,1010.08
2018-07-26T09:46:10.121Z,1010.08
2018-07-26T09:48:03.148Z,1009.99
2018-07-26T09:49:03.224Z,1010.02
2018-07-26T09:50:56.300Z,1010.02
2018-07-26T09:51:56.341Z,1010.00
2018-07-26T09:53:49.358Z,1009.91
2018-07-26T09:54:49.480Z,1009.90
2018-07-26T09:56:42.474Z,1009.97
2018-07-26T09:57:42.544Z,1009.90
2018-07-26T09:59:35.577Z,1009.89
2018-07-26T10:00:35.651Z,1009.94
2018-07-26T10:02:28.676Z,1009.91
2018-07-26T10:03:28.748Z,1009.93
2018-07-26T10:05:21.776Z,1009.92
2018-07-26T10:06:21.845Z,1009.89
2018-07-26T10:08:14.874Z,1009.91
2018-07-26T10:09:14.944Z,1009.90
2018-07-26T10:11:08.820Z,1009.85
2018-07-26T10:12:08.888Z,1009.95
2018-07-26T10:14:01.962Z,1009.90
2018-07-26T10:15:01.994Z,1009.95
2018-07-26T10:16:55.007Z,1009.93
2018-07-26T10:17:55.084Z,1009.88
2018-07-26T10:19:48.095Z,1009.88
2018-07-26T10:20:48.172Z,1009.86
2018-07-26T10:22:41.195Z,1009.82
2018-07-26T10:23:41.260Z,1009.79
2018-07-26T10:25:34.294Z,1009.79
2018-07-26T10:26:34.364Z,1009.79
2018-07-26T10:28:27.380Z,1009.75
2018-07-26T10:29:27.459Z,1009.76
2018-07-26T10:31:20.482Z,1009.77
2018-07-26T10:32:20.552Z,1009.75
2018-07-26T10:34:13.581Z,1009.75
2018-07-26T10:35:13.641Z,1009.73
2018-07-26T10:37:06.698Z,1009.72
2018-07-26T10:38:06.737Z,1009.72
2018-07-26T10:39:59.808Z,1009.71
2018-07-26T10:40:59.828Z,1009.72
2018-07-26T10:42:52.853Z,1009.67
2018-07-26T10:43:52.924Z,1009.65
2018-07-26T10:45:45.956Z,1009.77
2018-07-26T10:46:46.033Z,1009.77
2018-07-26T10:48:39.057Z,1009.70
2018-07-26T10:49:39.125Z,1009.67
2018-07-26T10:51:32.145Z,1009.65
2018-07-26T10:52:32.217Z,1009.64
2018-07-26T10:54:25.240Z,1009.64
2018-07-26T10:55:25.301Z,1009.59
2018-07-26T10:57:18.340Z,1009.57
2018-07-26T10:58:18.404Z,1009.57
2018-07-26T11:00:11.481Z,1009.57
2018-07-26T11:01:11.510Z,1009.55
2018-07-26T11:03:04.546Z,1009.61
2018-07-26T11:04:04.603Z,1009.67
2018-07-26T11:05:57.620Z,1009.61
2018-07-26T11:06:57.699Z,1009.54
2018-07-26T11:08:50.722Z,1009.59
2018-07-26T11:09:50.792Z,1009.60
2018-07-26T11:11:43.810Z,1009.54
2018-07-26T11:12:43.875Z,1009.52
2018-07-26T11:14:36.903Z,1009.52
2018-07-26T11:15:36.977Z,1009.55
2018-07-26T11:17:30.005Z,1009.49
2018-07-26T11:18:30.060Z,1009.44
2018-07-26T11:20:23.072Z,1009.46
2018-07-26T11:21:23.143Z,1009.48
2018-07-26T11:23:16.158Z,1009.52
2018-07-26T11:24:16.268Z,1009.54
2018-07-26T11:26:09.248Z,1009.49
2018-07-26T11:27:09.374Z,1009.43
2018-07-26T11:29:02.346Z,1009.45
2018-07-26T11:30:02.450Z,1009.42
2018-07-26T11:31:55.527Z,1009.46
2018-07-26T11:32:55.533Z,1009.36
2018-07-26T11:34:48.531Z,1009.42
2018-07-26T11:35:48.645Z,1009.40
2018-07-26T11:37:41.612Z,1009.40
2018-07-26T11:38:41.685Z,1009.43
2018-07-26T11:40:34.701Z,1009.42
2018-07-26T11:41:34.779Z,1009.38
2018-07-26T11:43:27.807Z,1009.34
2018-07-26T11:44:27.865Z,1009.33
2018-07-26T11:46:20.877Z,1009.22
2018-07-26T11:47:20.944Z,1009.35
2018-07-26T11:49:13.972Z,1009.30
2018-07-26T11:50:14.078Z,1009.32
2018-07-26T11:52:07.054Z,1009.33
2018-07-26T11:53:07.131Z,1009.29
2018-07-26T11:55:00.137Z,1009.33
2018-07-26T11:56:00.215Z,1009.38
2018-07-26T11:57:53.228Z,1009.30
2018-07-26T11:58:53.294Z,1009.26
2018-07-26T12:00:46.313Z,1009.26
2018-07-26T12:01:46.378Z,1009.24
2018-07-26T12:03:39.400Z,1009.24
2018-07-26T12:04:39.474Z,1009.23
2018-07-26T12:06:32.498Z,1009.20
2018-07-26T12:07:32.565Z,1009.14
2018-07-26T12:09:25.582Z,1009.15
2018-07-26T12:10:25.645Z,1009.26
2018-07-26T12:12:18.677Z,1009.20
2018-07-26T12:13:18.742Z,1009.13
2018-07-26T12:15:11.774Z,1009.15
2018-07-26T12:16:11.838Z,1009.17
2018-07-26T12:18:04.859Z,1009.17
2018-07-26T12:19:04.921Z,1009.12
2018-07-26T12:20:57.958Z,1009.12
2018-07-26T12:21:58.014Z,1009.07
2018-07-26T12:23:51.037Z,1009.04
2018-07-26T12:24:51.111Z,1009.08
2018-07-26T12:26:44.152Z,1009.10
2018-07-26T12:27:44.197Z,1009.03
2018-07-26T12:29:37.210Z,1009.03
2018-07-26T12:30:37.283Z,1008.99
2018-07-26T12:32:30.300Z,1008.99
2018-07-26T12:33:30.367Z,1008.99
2018-07-26T12:35:23.389Z,1009.06
2018-07-26T12:36:24.454Z,1008.99
2018-07-26T12:38:16.483Z,1008.98
2018-07-26T12:39:16.554Z,1008.93
2018-07-26T12:41:09.650Z,1008.94
2018-07-26T12:42:09.650Z,1008.90
2018-07-26T12:44:02.678Z,1008.88
2018-07-26T12:45:02.748Z,1008.94
2018-07-26T12:46:55.768Z,1008.87
2018-07-26T12:47:55.921Z,1008.86
2018-07-26T12:49:48.857Z,1008.89
2018-07-26T12:50:48.930Z,1008.89
2018-07-26T12:52:41.962Z,1008.78
2018-07-26T12:53:42.027Z,1008.76
2018-07-26T12:55:35.065Z,1008.72
2018-07-26T12:56:35.132Z,1008.76
2018-07-26T12:58:28.165Z,1008.78
2018-07-26T12:59:28.231Z,1008.79
2018-07-26T13:01:21.286Z,1008.79
2018-07-26T13:02:21.323Z,1008.87
2018-07-26T13:04:14.346Z,1008.81
2018-07-26T13:05:15.427Z,1008.77
2018-07-26T13:07:07.492Z,1008.79
2018-07-26T13:08:07.523Z,1008.75
2018-07-26T13:10:00.549Z,1008.75
2018-07-26T13:11:00.620Z,1008.76
2018-07-26T13:12:53.632Z,1008.72
2018-07-26T13:13:53.699Z,1008.67
2018-07-26T13:15:46.721Z,1008.65
2018-07-26T13:16:46.788Z,1008.70
2018-07-26T13:18:39.831Z,1008.67
2018-07-26T13:19:39.897Z,1008.66
2018-07-26T13:21:32.937Z,1008.67
2018-07-26T13:22:32.981Z,1008.68
2018-07-26T13:24:26.003Z,1008.64
2018-07-26T13:25:26.072Z,1008.69
2018-07-26T13:27:19.197Z,1008.59
2018-07-26T13:28:19.172Z,1008.59
2018-07-26T13:30:12.177Z,1008.55
2018-07-26T13:31:12.253Z,1008.56
2018-07-26T13:33:05.285Z,1008.66
2018-07-26T13:34:05.355Z,1008.62
2018-07-26T13:35:58.368Z,1008.61
2018-07-26T13:36:58.440Z,1008.54
2018-07-26T13:38:51.470Z,1008.54
2018-07-26T13:39:51.577Z,1008.54
2018-07-26T13:41:44.545Z,1008.62
2018-07-26T13:42:44.609Z,1008.56
2018-07-26T13:44:38.155Z,1008.58
2018-07-26T13:45:38.203Z,1008.66
2018-07-26T13:47:31.226Z,1008.59
2018-07-26T13:48:31.303Z,1008.52
2018-07-26T13:50:24.307Z,1008.48
2018-07-26T13:51:24.379Z,1008.47
2018-07-26T13:53:17.401Z,1008.45
2018-07-26T13:54:17.479Z,1008.49
2018-07-26T13:56:10.486Z,1008.50
2018-07-26T13:57:10.585Z,1008.43
2018-07-26T13:59:03.577Z,1008.49
2018-07-26T14:00:03.645Z,1008.46
2018-07-26T14:01:56.666Z,1008.41
2018-07-26T14:02:56.744Z,1008.44
2018-07-26T14:04:49.758Z,1008.41
2018-07-26T14:05:49.824Z,1008.36
2018-07-26T14:07:42.838Z,1008.43
2018-07-26T14:08:42.915Z,1008.38
2018-07-26T14:10:35.932Z,1008.40
2018-07-26T14:11:35.998Z,1008.46
2018-07-26T14:13:29.197Z,1008.42
2018-07-26T14:14:29.087Z,1008.41
2018-07-26T14:16:22.105Z,1008.34
2018-07-26T14:17:22.172Z,1008.29
2018-07-26T14:19:15.193Z,1008.20
2018-07-26T14:20:15.252Z,1008.26
2018-07-26T14:22:08.321Z,1008.28
2018-07-26T14:23:08.343Z,1008.25
2018-07-26T14:25:01.372Z,1008.25
2018-07-26T14:26:01.428Z,1008.25
2018-07-26T14:27:54.440Z,1008.15
2018-07-26T14:28:54.510Z,1008.14
2018-07-26T14:30:47.529Z,1008.16
2018-07-26T14:31:47.595Z,1008.20
2018-07-26T14:33:40.648Z,1008.20
2018-07-26T14:34:40.687Z,1008.15
2018-07-26T14:36:33.705Z,1008.19
2018-07-26T14:37:33.772Z,1008.13
2018-07-26T14:39:26.798Z,1008.10
2018-07-26T14:40:26.860Z,1008.08
2018-07-26T14:42:19.874Z,1008.07
2018-07-26T14:43:19.949Z,1008.01
2018-07-26T14:45:13.480Z,1008.00
2018-07-26T14:46:13.538Z,1008.06
2018-07-26T14:48:06.551Z,1008.02
2018-07-26T14:49:06.628Z,1008.02
2018-07-26T14:50:59.645Z,1008.01
2018-07-26T14:51:59.711Z,1008.08
2018-07-26T14:53:52.729Z,1007.98
2018-07-26T14:54:52.810Z,1007.98
2018-07-26T14:56:45.819Z,1008.03
2018-07-26T14:57:45.884Z,1008.06
2018-07-26T14:59:38.902Z,1008.00
2018-07-26T15:00:39.078Z,1008.00
2018-07-26T15:02:31.982Z,1008.04
2018-07-26T15:03:32.056Z,1007.99
2018-07-26T15:05:25.085Z,1007.98
2018-07-26T15:06:25.149Z,1008.00
2018-07-26T15:08:18.161Z,1007.98
2018-07-26T15:09:18.239Z,1008.01
2018-07-26T15:11:11.276Z,1008.02
2018-07-26T15:12:11.343Z,1008.01
2018-07-26T15:14:04.357Z,1008.06
2018-07-26T15:15:04.426Z,1008.06
2018-07-26T15:16:57.443Z,1008.07
2018-07-26T15:17:57.508Z,1008.10
2018-07-26T15:22:27.275Z,1008.14
2018-07-26T15:23:19.315Z,1008.11
2018-07-26T15:25:12.341Z,1008.02
2018-07-26T15:26:12.450Z,1008.00
2018-07-26T15:28:05.409Z,1008.02
2018-07-26T15:29:05.479Z,1007.98
2018-07-26T15:30:58.501Z,1008.02
2018-07-26T15:31:58.590Z,1008.02
2018-07-26T15:33:51.584Z,1007.96
2018-07-26T15:34:51.765Z,1007.99
2018-07-26T15:36:44.713Z,1007.97
2018-07-26T15:37:44.775Z,1007.92
2018-07-26T15:39:37.780Z,1007.91
2018-07-26T15:40:37.840Z,1007.93
2018-07-26T15:42:30.861Z,1007.91
2018-07-26T15:43:30.933Z,1007.91
2018-07-26T15:45:23.942Z,1007.91
2018-07-26T15:46:24.012Z,1007.91
2018-07-26T15:48:17.028Z,1007.89
2018-07-26T15:49:17.199Z,1007.90
2018-07-26T15:51:10.172Z,1007.91
2018-07-26T15:52:10.183Z,1007.90
2018-07-26T15:54:03.192Z,1007.96
2018-07-26T15:55:03.265Z,1007.98
2018-07-26T15:56:56.280Z,1007.91
2018-07-26T15:57:56.345Z,1007.90
2018-07-26T15:59:49.357Z,1007.89
2018-07-26T16:00:49.427Z,1007.85
2018-07-26T16:02:42.445Z,1007.85
2018-07-26T16:03:42.514Z,1007.90
2018-07-26T16:05:35.526Z,1007.83
2018-07-26T16:06:35.600Z,1007.74
2018-07-26T16:08:28.618Z,1007.81
2018-07-26T16:09:28.694Z,1007.83
2018-07-26T16:11:21.703Z,1007.82
2018-07-26T16:12:21.776Z,1007.83
2018-07-26T16:14:14.781Z,1007.81
2018-07-26T16:15:14.850Z,1007.78
2018-07-26T16:17:07.866Z,1007.76
2018-07-26T16:18:07.982Z,1007.77
2018-07-26T16:20:00.943Z,1007.81
2018-07-26T16:21:01.015Z,1007.83
2018-07-26T16:22:54.035Z,1007.81
2018-07-26T16:23:54.099Z,1007.75
2018-07-26T16:25:47.109Z,1007.75
2018-07-26T16:26:47.180Z,1007.75
2018-07-26T16:28:40.241Z,1007.76
2018-07-26T16:29:40.262Z,1007.69
2018-07-26T16:31:33.278Z,1007.72
2018-07-26T16:32:33.345Z,1007.70
2018-07-26T16:34:26.358Z,1007.72
2018-07-26T16:35:26.430Z,1007.70
2018-07-26T16:37:19.448Z,1007.64
2018-07-26T16:38:19.516Z,1007.66
2018-07-26T16:40:12.579Z,1007.64
2018-07-26T16:41:12.599Z,1007.71
2018-07-26T16:43:05.613Z,1007.60
2018-07-26T16:44:05.684Z,1007.60
2018-07-26T16:45:58.699Z,1007.58
2018-07-26T16:46:58.771Z,1007.60
2018-07-26T16:48:51.785Z,1007.56
2018-07-26T16:49:51.851Z,1007.60
2018-07-26T16:51:44.870Z,1007.58
2018-07-26T16:52:44.939Z,1007.57
2018-07-26T16:54:37.945Z,1007.54
2018-07-26T16:55:38.019Z,1007.52
2018-07-26T16:57:31.033Z,1007.60
2018-07-26T16:58:31.197Z,1007.57
2018-07-26T17:00:24.116Z,1007.61
2018-07-26T17:01:24.190Z,1007.56
2018-07-26T17:03:17.211Z,1007.64
2018-07-26T17:04:17.273Z,1007.65
2018-07-26T17:06:10.284Z,1007.65
2018-07-26T17:07:10.354Z,1007.64
2018-07-26T17:09:03.371Z,1007.63
2018-07-26T17:10:03.439Z,1007.68
2018-07-26T17:11:56.486Z,1007.71
2018-07-26T17:12:56.522Z,1007.67
2018-07-26T17:14:49.527Z,1007.65
2018-07-26T17:15:49.604Z,1007.67
2018-07-26T17:17:42.619Z,1007.69
2018-07-26T17:18:42.728Z,1007.68
2018-07-26T17:20:35.732Z,1007.69
2018-07-26T17:21:35.770Z,1007.65
2018-07-26T17:23:28.785Z,1007.67
2018-07-26T17:24:28.859Z,1007.67
2018-07-26T17:26:21.916Z,1007.66
2018-07-26T17:27:21.956Z,1007.68
2018-07-26T17:29:15.012Z,1007.65